Time;durP1;ratioP1;P1;durP2;ratioP2;P2;SDS_P1;SDS_P2;PMS_P1;PMS_P2;Temp;Humidity;BMP_temperature;BMP_pressure;BME280_temperature;BME280_humidity;BME280_pressure;Samples;Min_cycle;Max_cycle;Signal;HPM_P1;HPM_P2
2022/09/17 00:01:29;;;;;;;;;;;;;;;12.46;92.12;101375.59;5064887;28;19952;-34
2022/09/17 00:04:02;;;;;;;;;;;;;;;12.44;92.86;101363.88;5055267;28;20306;-39
2022/09/17 00:06:30;;;;;;;;;;;;;;;12.42;93.60;101354.94;5070253;28;19928;-39
2022/09/17 00:08:58;;;;;;;;;;;;;;;12.43;94.30;101345.41;5060694;28;20378;-41
2022/09/17 00:11:28;;;;;;;;;;;;;;;12.41;92.32;101344.88;5067994;28;19964;-38
2022/09/17 00:13:57;;;;;;;;;;;;;;;12.41;89.44;101350.47;5063841;28;19982;-41
2022/09/17 00:16:28;;;;;;;;;;;;;;;12.43;85.26;101351.84;5069446;28;19958;-38
2022/09/17 00:18:56;;;;;;;;;;;;;;;12.48;86.67;101348.13;5068489;28;19932;-39
2022/09/17 00:21:24;;;;;;;;;;;;;;;12.56;89.20;101350.28;5064694;28;19978;-34
2022/09/17 00:23:55;;;;;;;;;;;;;;;12.64;91.01;101352.41;5057835;28;19932;-36
2022/09/17 00:26:23;;;;;;;;;;;;;;;12.67;89.24;101340.59;5062401;28;19978;-33
2022/09/17 00:28:50;;;;;;;;;;;;;;;12.72;90.26;101357.34;5055583;28;19936;-33
2022/09/17 00:31:18;;;;;;;;;;;;;;;12.76;90.96;101365.97;5063383;28;19933;-40
2022/09/17 00:33:48;;;;;;;;;;;;;;;12.71;87.81;101371.63;5056068;28;19924;-38
2022/09/17 00:36:15;;;;;;;;;;;;;;;12.66;86.35;101363.28;5064636;28;20455;-37
2022/09/17 00:38:43;;;;;;;;;;;;;;;12.60;85.82;101358.88;5055365;28;20451;-41
2022/09/17 00:41:10;;;;;;;;;;;;;;;12.52;85.36;101359.56;5065425;28;20030;-42
2022/09/17 00:43:40;;;;;;;;;;;;;;;12.50;nan;101354.28;5053810;28;19928;-41
2022/09/17 00:46:16;;;;;;;;;;;;;;;12.49;87.19;101352.59;5065688;28;19976;-36
2022/09/17 00:48:44;;;;;;;;;;;;;;;12.51;87.20;101349.50;5055547;28;20417;-33
2022/09/17 00:51:15;;;;;;;;;;;;;;;12.54;85.84;101352.53;5061736;28;19928;-35
2022/09/17 00:53:43;;;;;;;;;;;;;;;12.58;86.74;101350.81;5074166;28;19929;-36
2022/09/17 00:56:14;;;;;;;;;;;;;;;12.61;86.41;101344.59;5061288;28;19928;-34
2022/09/17 00:58:42;;;;;;;;;;;;;;;12.63;84.62;101342.31;5073226;28;19974;-34
2022/09/17 01:01:10;;;;;;;;;;;;;;;12.63;84.09;101333.94;5061170;28;19925;-41
2022/09/17 01:03:37;;;;;;;;;;;;;;;12.65;85.08;101348.47;5074013;28;20053;-35
2022/09/17 01:06:12;;;;;;;;;;;;;;;12.68;87.76;101336.66;5061838;28;19925;-36
2022/09/17 01:08:47;;;;;;;;;;;;;;;12.73;88.87;101341.38;5073971;28;19974;-38
2022/09/17 01:11:23;;;;;;;;;;;;;;;12.77;88.47;101339.63;5061928;28;19925;-39
2022/09/17 01:13:59;;;;;;;;;;;;;;;12.80;89.00;101347.41;5053878;28;19982;-39
2022/09/17 01:16:32;;;;;;;;;;;;;;;12.82;87.59;101347.09;5057980;28;19925;-39
2022/09/17 01:19:04;;;;;;;;;;;;;;;12.82;87.39;101341.50;5072773;28;19924;-39
2022/09/17 01:21:38;;;;;;;;;;;;;;;12.80;86.04;101335.38;5066759;28;19932;-37
2022/09/17 01:24:19;;;;;;;;;;;;;;;12.79;84.43;101339.34;5073441;28;19928;-37
2022/09/17 01:27:04;;;;;;;;;;;;;;;12.77;82.87;101350.84;5060709;28;19978;-33
2022/09/17 01:29:40;;;;;;;;;;;;;;;12.76;80.53;101344.41;5073568;28;19978;-35
2022/09/17 01:32:12;;;;;;;;;;;;;;;12.77;80.15;101343.25;5068892;28;20335;-36
2022/09/17 01:34:42;;;;;;;;;;;;;;;12.81;80.44;101345.44;5052762;28;19980;-38
2022/09/17 01:37:14;;;;;;;;;;;;;;;12.83;80.50;101349.59;5064983;28;20442;-37
2022/09/17 01:39:44;;;;;;;;;;;;;;;12.90;84.39;101349.22;5052568;28;20511;-38
2022/09/17 01:42:16;;;;;;;;;;;;;;;12.95;88.16;101361.22;5063334;28;19981;-40
2022/09/17 01:44:48;;;;;;;;;;;;;;;12.93;87.53;101351.44;5054438;28;19970;-38
2022/09/17 01:47:21;;;;;;;;;;;;;;;12.90;86.17;101361.28;5061641;28;19928;-40
2022/09/17 01:49:51;;;;;;;;;;;;;;;12.94;86.61;101359.53;5065747;28;19924;-39
2022/09/17 01:52:19;;;;;;;;;;;;;;;12.94;85.37;101358.72;5064882;28;19979;-38
2022/09/17 01:54:49;;;;;;;;;;;;;;;12.94;85.86;101353.09;5068498;28;19974;-35
2022/09/17 01:57:20;;;;;;;;;;;;;;;12.95;84.99;101355.59;5065893;28;19932;-39
2022/09/17 01:59:50;;;;;;;;;;;;;;;12.97;84.52;101352.50;5067608;28;20416;-37
2022/09/17 02:02:27;;;;;;;;;;;;;;;12.98;85.56;101357.81;5066498;28;19932;-37
2022/09/17 02:04:57;;;;;;;;;;;;;;;13.00;83.36;101360.28;5067591;28;19931;-39
2022/09/17 02:07:25;;;;;;;;;;;;;;;12.96;81.79;101367.66;5067464;28;19979;-39
2022/09/17 02:09:56;;;;;;;;;;;;;;;12.93;80.86;101368.25;5063493;28;19979;-39
2022/09/17 02:12:28;;;;;;;;;;;;;;;12.89;80.29;101359.59;5068676;28;19928;-36
2022/09/17 02:14:57;;;;;;;;;;;;;;;12.87;79.36;101358.25;5063558;28;20389;-42
2022/09/17 02:17:30;;;;;;;;;;;;;;;12.85;80.58;101354.91;5070245;28;19968;-32
2022/09/17 02:19:59;;;;;;;;;;;;;;;12.84;81.16;101370.88;5063302;28;19928;-38
2022/09/17 02:22:29;;;;;;;;;;;;;;;12.85;80.96;101352.09;5060181;28;20390;-37
2022/09/17 02:25:01;;;;;;;;;;;;;;;12.88;80.38;101365.50;5072272;28;20088;-37
2022/09/17 02:27:34;;;;;;;;;;;;;;;12.91;79.52;101370.50;5070900;28;19960;-39
2022/09/17 02:30:02;;;;;;;;;;;;;;;12.94;79.53;101367.09;5060309;28;19924;-37
2022/09/17 02:32:31;;;;;;;;;;;;;;;12.97;82.91;101372.09;5070635;28;19933;-37
2022/09/17 02:34:58;;;;;;;;;;;;;;;12.96;81.40;101374.06;5060758;28;19928;-39
2022/09/17 02:37:26;;;;;;;;;;;;;;;12.94;80.17;101367.09;5070328;28;19990;-33
2022/09/17 02:39:54;;;;;;;;;;;;;;;12.89;76.84;101372.78;5059741;28;20414;-36
2022/09/17 02:42:28;;;;;;;;;;;;;;;12.90;79.23;101377.25;5072202;28;19990;-37
2022/09/17 02:45:01;;;;;;;;;;;;;;;12.93;82.73;101369.06;5064165;28;19928;-36
2022/09/17 02:47:50;;;;;;;;;;;;;;;12.94;82.26;101376.34;5052166;28;19986;-36
2022/09/17 02:50:24;;;;;;;;;;;;;;;12.96;83.42;101388.09;5064436;28;19933;-40
2022/09/17 02:52:57;;;;;;;;;;;;;;;12.91;82.13;101376.13;5052190;28;19932;-39
2022/09/17 02:55:30;;;;;;;;;;;;;;;12.87;82.42;101392.69;5066811;28;19998;-39
2022/09/17 02:58:00;;;;;;;;;;;;;;;12.85;85.63;101396.91;5051609;28;20370;-30
2022/09/17 03:00:27;;;;;;;;;;;;;;;12.75;87.01;101404.34;5060110;28;19924;-44
2022/09/17 03:02:59;;;;;;;;;;;;;;;12.58;89.37;101414.38;5071850;28;19934;-43
2022/09/17 03:05:29;;;;;;;;;;;;;;;12.39;92.30;101419.91;5058314;28;20396;-35
2022/09/17 03:07:56;;;;;;;;;;;;;;;12.24;94.91;101404.13;5072235;28;19948;-33
2022/09/17 03:10:24;;;;;;;;;;;;;;;12.13;95.58;101404.53;5058729;28;19954;-41
2022/09/17 03:12:53;;;;;;;;;;;;;;;11.98;95.95;101403.59;5070634;28;20047;-39
2022/09/17 03:15:21;;;;;;;;;;;;;;;11.84;96.60;101383.00;5060898;28;19929;-35
2022/09/17 03:17:48;;;;;;;;;;;;;;;11.78;97.43;101387.00;5070142;28;20361;-33
2022/09/17 03:20:21;;;;;;;;;;;;;;;11.72;96.90;101390.94;5062113;28;19982;-32
2022/09/17 03:22:49;;;;;;;;;;;;;;;11.67;96.84;101380.63;5053043;28;19925;-30
2022/09/17 03:25:16;;;;;;;;;;;;;;;11.68;98.05;101381.47;5057720;28;19975;-38
2022/09/17 03:27:44;;;;;;;;;;;;;;;11.66;96.72;101384.56;5056155;28;19964;-35
2022/09/17 03:30:11;;;;;;;;;;;;;;;11.65;96.44;101387.63;5056937;28;19929;-39
2022/09/17 03:32:39;;;;;;;;;;;;;;;11.65;96.38;101387.63;5057495;28;20294;-38
2022/09/17 03:35:07;;;;;;;;;;;;;;;11.65;95.70;101382.03;5054350;28;20438;-31
2022/09/17 03:37:35;;;;;;;;;;;;;;;11.67;95.33;101377.00;5059973;28;20061;-35
2022/09/17 03:40:03;;;;;;;;;;;;;;;11.70;95.05;101374.47;5050585;28;19956;-41
2022/09/17 03:42:31;;;;;;;;;;;;;;;11.74;95.70;101380.31;5069531;28;19925;-37
2022/09/17 03:44:58;;;;;;;;;;;;;;;11.79;95.98;101390.63;5069142;28;20401;-40
2022/09/17 03:47:26;;;;;;;;;;;;;;;11.81;96.08;101383.59;5059574;28;19928;-35
2022/09/17 03:49:54;;;;;;;;;;;;;;;11.85;95.85;101383.84;5062070;28;19963;-36
2022/09/17 03:52:21;;;;;;;;;;;;;;;11.84;94.28;101377.41;5066202;28;20293;-36
2022/09/17 03:54:50;;;;;;;;;;;;;;;11.85;93.74;101387.47;5054364;28;20455;-32
2022/09/17 03:57:18;;;;;;;;;;;;;;;11.83;91.67;101377.72;5067547;28;19971;-32
2022/09/17 03:59:45;;;;;;;;;;;;;;;11.87;91.49;101381.59;5055092;28;19978;-34
2022/09/17 04:02:13;;;;;;;;;;;;;;;11.90;91.30;101384.63;5066513;28;20395;-32
2022/09/17 04:04:40;;;;;;;;;;;;;;;11.96;91.92;101372.28;5054918;28;20440;-32
2022/09/17 04:07:08;;;;;;;;;;;;;;;11.99;92.03;101387.63;5065268;28;19971;-37
2022/09/17 04:09:36;;;;;;;;;;;;;;;12.00;90.41;101373.31;5055760;28;19925;-41
2022/09/17 04:12:05;;;;;;;;;;;;;;;12.05;90.44;101373.28;5063890;28;19955;-40
2022/09/17 04:14:32;;;;;;;;;;;;;;;12.07;90.48;101373.81;5056697;28;20390;-35
2022/09/17 04:17:00;;;;;;;;;;;;;;;12.10;90.84;101371.56;5061991;28;19997;-38
2022/09/17 04:19:27;;;;;;;;;;;;;;;12.13;92.66;101387.75;5059495;28;19995;-40
2022/09/17 04:21:55;;;;;;;;;;;;;;;12.22;97.01;101399.94;5058479;28;19925;-36
2022/09/17 04:24:22;;;;;;;;;;;;;;;12.25;97.50;101397.41;5067628;28;19950;-35
2022/09/17 04:26:50;;;;;;;;;;;;;;;12.20;96.32;101405.00;5071181;28;19947;-38
2022/09/17 04:29:19;;;;;;;;;;;;;;;12.08;94.69;101405.44;5064660;28;20459;-40
2022/09/17 04:31:46;;;;;;;;;;;;;;;11.96;94.35;101411.44;5072955;28;19971;-34
2022/09/17 04:34:14;;;;;;;;;;;;;;;11.87;95.15;101402.00;5065207;28;19971;-37
2022/09/17 04:36:41;;;;;;;;;;;;;;;11.78;95.06;101394.56;5054889;28;20007;-35
2022/09/17 04:39:09;;;;;;;;;;;;;;;11.70;95.44;101390.41;5065409;28;20341;-38
2022/09/17 04:41:36;;;;;;;;;;;;;;;11.66;96.55;101392.94;5054785;28;19936;-39
2022/09/17 04:44:04;;;;;;;;;;;;;;;11.68;98.11;101395.44;5064830;28;19932;-38
2022/09/17 04:46:33;;;;;;;;;;;;;;;11.68;97.90;101389.84;5054160;28;19956;-35
2022/09/17 04:49:00;;;;;;;;;;;;;;;11.68;97.12;101389.84;5065527;28;19928;-42
2022/09/17 04:51:28;;;;;;;;;;;;;;;11.68;96.98;101390.69;5053310;28;19928;-40
2022/09/17 04:53:55;;;;;;;;;;;;;;;11.69;97.38;101395.16;5066474;28;19924;-37
2022/09/17 04:56:23;;;;;;;;;;;;;;;11.72;98.51;101390.94;5053400;28;20417;-42
2022/09/17 04:58:50;;;;;;;;;;;;;;;11.72;97.04;101393.72;5065072;28;19929;-35
2022/09/17 05:01:18;;;;;;;;;;;;;;;11.68;95.47;101387.06;5053008;28;19964;-35
2022/09/17 05:03:47;;;;;;;;;;;;;;;11.64;94.54;101383.19;5061741;28;19930;-41
2022/09/17 05:06:14;;;;;;;;;;;;;;;11.64;94.52;101388.75;5056013;28;19964;-42
2022/09/17 05:08:42;;;;;;;;;;;;;;;11.66;94.50;101392.09;5060359;28;20301;-37
2022/09/17 05:11:09;;;;;;;;;;;;;;;11.68;91.67;101389.84;5057356;28;19975;-41
2022/09/17 05:13:37;;;;;;;;;;;;;;;11.74;89.13;101386.72;5056876;28;20385;-35
2022/09/17 05:16:05;;;;;;;;;;;;;;;11.84;87.73;101388.59;5072073;28;19928;-37
2022/09/17 05:18:32;;;;;;;;;;;;;;;11.94;88.63;101391.31;5068630;28;20418;-36
2022/09/17 05:21:01;;;;;;;;;;;;;;;12.06;89.87;101414.09;5063548;28;19974;-38
2022/09/17 05:23:29;;;;;;;;;;;;;;;12.14;90.97;101409.00;5054702;28;19982;-35
2022/09/17 05:25:57;;;;;;;;;;;;;;;12.10;92.15;101400.38;5061564;28;19928;-35
2022/09/17 05:28:25;;;;;;;;;;;;;;;12.08;92.68;101409.06;5071041;28;19933;-37
2022/09/17 05:30:52;;;;;;;;;;;;;;;12.08;93.16;101409.06;5064705;28;19928;-35
2022/09/17 05:33:20;;;;;;;;;;;;;;;12.11;93.75;101415.19;5053407;28;19929;-37
2022/09/17 05:35:47;;;;;;;;;;;;;;;12.08;91.91;101406.25;5064464;28;19979;-33
2022/09/17 05:38:17;;;;;;;;;;;;;;;12.12;89.81;101408.47;5066746;28;19928;-37
2022/09/17 05:40:45;;;;;;;;;;;;;;;12.19;90.17;101414.56;5058440;28;19994;-40
2022/09/17 05:43:12;;;;;;;;;;;;;;;12.28;92.97;101415.56;5072398;28;19932;-36
2022/09/17 05:45:40;;;;;;;;;;;;;;;12.38;95.58;101413.50;5058511;28;20360;-39
2022/09/17 05:48:10;;;;;;;;;;;;;;;12.42;96.83;101408.94;5072012;28;19932;-33
2022/09/17 05:50:37;;;;;;;;;;;;;;;12.41;94.22;101417.63;5066204;28;19933;-42
2022/09/17 05:53:06;;;;;;;;;;;;;;;12.36;91.63;101420.50;5051293;28;20386;-36
2022/09/17 05:55:35;;;;;;;;;;;;;;;12.38;91.75;101415.47;5059651;28;19981;-37
2022/09/17 05:58:08;;;;;;;;;;;;;;;12.46;93.20;101422.34;5054185;28;19936;-38
2022/09/17 06:00:36;;;;;;;;;;;;;;;12.57;95.16;101429.50;5059377;28;20343;-37
2022/09/17 06:03:04;;;;;;;;;;;;;;;12.62;97.15;101430.25;5055310;28;20016;-42
2022/09/17 06:05:31;;;;;;;;;;;;;;;12.58;98.01;101418.00;5058099;28;19967;-33
2022/09/17 06:07:59;;;;;;;;;;;;;;;12.55;98.85;101420.56;5056491;28;19925;-40
2022/09/17 06:10:26;;;;;;;;;;;;;;;12.52;98.87;101413.59;5055929;28;19947;-36
2022/09/17 06:12:59;;;;;;;;;;;;;;;12.53;98.93;101415.28;5058811;28;19950;-33
2022/09/17 06:15:27;;;;;;;;;;;;;;;12.58;99.21;101418.00;5053793;28;19935;-38
2022/09/17 06:17:55;;;;;;;;;;;;;;;12.64;97.39;101430.78;5060450;28;19982;-39
2022/09/17 06:20:22;;;;;;;;;;;;;;;12.69;96.83;101433.53;5052314;28;20026;-35
2022/09/17 06:22:55;;;;;;;;;;;;;;;12.73;97.00;101433.78;5070684;28;19978;-40
2022/09/17 06:25:23;;;;;;;;;;;;;;;12.73;97.25;101419.78;5069765;28;19928;-36
2022/09/17 06:27:50;;;;;;;;;;;;;;;12.72;97.84;101421.75;5059050;28;19965;-31
2022/09/17 06:30:19;;;;;;;;;;;;;;;12.73;97.87;101419.78;5069724;28;20348;-38
2022/09/17 06:32:47;;;;;;;;;;;;;;;12.77;97.80;101420.84;5060021;28;20325;-36
2022/09/17 06:35:15;;;;;;;;;;;;;;;12.82;97.64;101429.16;5070726;28;19928;-40
2022/09/17 06:37:43;;;;;;;;;;;;;;;12.88;97.19;101446.75;5059713;28;19940;-40
2022/09/17 06:40:10;;;;;;;;;;;;;;;12.93;98.39;101446.69;5071347;28;20335;-33
2022/09/17 06:42:38;;;;;;;;;;;;;;;12.88;98.63;101441.13;5057230;28;19928;-40
2022/09/17 06:45:06;;;;;;;;;;;;;;;12.79;98.97;101445.75;5069656;28;20455;-42
2022/09/17 06:47:41;;;;;;;;;;;;;;;12.68;99.06;101437.47;5058225;28;19925;-30
2022/09/17 06:50:08;;;;;;;;;;;;;;;12.67;100.00;101452.59;5056915;28;19971;-39
2022/09/17 06:52:37;;;;;;;;;;;;;;;12.73;100.00;101465.41;5061900;28;19925;-38
2022/09/17 06:55:05;;;;;;;;;;;;;;;12.72;100.00;101446.94;5052852;28;19925;-33
2022/09/17 06:57:32;;;;;;;;;;;;;;;12.72;100.00;101452.53;5060047;28;20346;-39
2022/09/17 07:00:00;;;;;;;;;;;;;;;12.90;100.00;101458.47;5054792;28;19936;-39
2022/09/17 07:02:27;;;;;;;;;;;;;;;13.27;100.00;101449.31;5058584;28;19925;-35
2022/09/17 07:04:56;;;;;;;;;;;;;;;13.68;95.99;101449.50;5061407;28;20019;-36
2022/09/17 07:07:24;;;;;;;;;;;;;;;13.88;89.32;101446.34;5066519;28;19982;-39
2022/09/17 07:09:52;;;;;;;;;;;;;;;13.92;86.41;101447.41;5064528;28;19925;-35
2022/09/17 07:12:20;;;;;;;;;;;;;;;14.05;85.45;101446.59;5067570;28;19970;-38
2022/09/17 07:14:48;;;;;;;;;;;;;;;14.40;83.48;101455.47;5062684;28;19928;-38
2022/09/17 07:17:15;;;;;;;;;;;;;;;14.95;82.39;101455.53;5069365;28;20368;-32
2022/09/17 07:19:43;;;;;;;;;;;;;;;15.52;80.36;101453.94;5060155;28;19928;-40
2022/09/17 07:22:13;;;;;;;;;;;;;;;16.06;77.33;101447.22;5069850;28;19928;-36
2022/09/17 07:24:40;;;;;;;;;;;;;;;16.68;76.60;101450.06;5058909;28;19994;-39
2022/09/17 07:27:08;;;;;;;;;;;;;;;17.17;72.70;101448.88;5070277;28;19928;-36
2022/09/17 07:29:35;;;;;;;;;;;;;;;17.46;66.83;101448.22;5059904;28;19925;-34
2022/09/17 07:32:03;;;;;;;;;;;;;;;17.48;63.81;101454.34;5070764;28;19932;-32
2022/09/17 07:34:30;;;;;;;;;;;;;;;17.25;62.49;101443.56;5058023;28;20386;-37
2022/09/17 07:36:58;;;;;;;;;;;;;;;16.96;64.31;101438.53;5070146;28;19979;-40
2022/09/17 07:39:27;;;;;;;;;;;;;;;17.12;66.58;101439.72;5055750;28;19929;-39
2022/09/17 07:41:54;;;;;;;;;;;;;;;17.38;66.98;101425.66;5069845;28;19932;-35
2022/09/17 07:44:22;;;;;;;;;;;;;;;17.65;68.00;101427.31;5059373;28;19975;-33
2022/09/17 07:46:49;;;;;;;;;;;;;;;17.76;63.50;101434.31;5069395;28;20057;-38
2022/09/17 07:49:17;;;;;;;;;;;;;;;17.69;64.00;101439.63;5067712;28;19989;-35
2022/09/17 07:51:45;;;;;;;;;;;;;;;17.45;64.10;101448.53;5054160;28;19987;-33
2022/09/17 07:54:14;;;;;;;;;;;;;;;17.17;65.36;101433.94;5057429;28;19929;-36
2022/09/17 07:56:43;;;;;;;;;;;;;;;17.00;67.65;101439.53;5055936;28;19925;-37
2022/09/17 07:59:11;;;;;;;;;;;;;;;17.15;69.79;101439.06;5055927;28;19974;-35
2022/09/17 08:01:39;;;;;;;;;;;;;;;17.48;67.01;101437.44;5057676;28;19929;-38
2022/09/17 08:04:07;;;;;;;;;;;;;;;17.63;64.25;101435.25;5054535;28;20011;-39
2022/09/17 08:06:37;;;;;;;;;;;;;;;17.45;62.10;101449.38;5058668;28;19929;-36
2022/09/17 08:09:05;;;;;;;;;;;;;;;17.27;62.78;101439.25;5052569;28;19955;-34
2022/09/17 08:11:32;;;;;;;;;;;;;;;17.30;62.03;101441.41;5061277;28;19924;-34
2022/09/17 08:14:21;;;;;;;;;;;;;;;17.37;61.80;101444.56;5052407;28;19993;-34
2022/09/17 08:16:55;;;;;;;;;;;;;;;17.63;63.56;101441.72;5059741;28;20015;-36
2022/09/17 08:19:23;;;;;;;;;;;;;;;17.78;67.05;101455.41;5052167;28;20371;-37
2022/09/17 08:21:51;;;;;;;;;;;;;;;17.65;65.46;101464.84;5068289;28;19929;-36
2022/09/17 08:24:18;;;;;;;;;;;;;;;17.35;67.05;101463.00;5068628;28;19952;-34
2022/09/17 08:26:46;;;;;;;;;;;;;;;16.96;69.57;101473.19;5062298;28;19982;-40
2022/09/17 08:29:13;;;;;;;;;;;;;;;16.59;69.99;101468.88;5051326;28;19936;-43
2022/09/17 08:31:42;;;;;;;;;;;;;;;16.32;72.93;101466.28;5065768;28;19925;-33
2022/09/17 08:34:10;;;;;;;;;;;;;;;16.06;75.30;101461.31;5069624;28;19960;-38
2022/09/17 08:36:37;;;;;;;;;;;;;;;15.87;76.97;101460.69;5061972;28;19925;-37
2022/09/17 08:39:05;;;;;;;;;;;;;;;15.88;78.77;101453.06;5053549;28;20401;-34
2022/09/17 08:41:41;;;;;;;;;;;;;;;16.18;77.91;101455.94;5065173;28;19924;-35
2022/09/17 08:44:15;;;;;;;;;;;;;;;16.76;76.35;101451.25;5053713;28;19932;-35
2022/09/17 08:46:47;;;;;;;;;;;;;;;17.48;73.19;101456.34;5066681;28;19928;-32
2022/09/17 08:49:20;;;;;;;;;;;;;;;17.87;65.71;101447.72;5059570;28;19929;-33
2022/09/17 08:51:55;;;;;;;;;;;;;;;18.06;63.31;101444.53;5061496;28;19925;-36
2022/09/17 08:54:27;;;;;;;;;;;;;;;18.14;65.64;101468.28;5074080;28;19924;-42
2022/09/17 08:57:04;;;;;;;;;;;;;;;17.68;69.90;101472.66;5060915;28;19929;-37
2022/09/17 08:59:35;;;;;;;;;;;;;;;17.09;72.34;101474.22;5053900;28;19928;-32
2022/09/17 09:02:12;;;;;;;;;;;;;;;16.64;74.89;101463.13;5058173;28;19929;-34
2022/09/17 09:04:55;;;;;;;;;;;;;;;16.28;76.53;101463.25;5073025;28;19924;-41
2022/09/17 09:07:24;;;;;;;;;;;;;;;16.18;80.72;101464.38;5067430;28;20336;-33
2022/09/17 09:09:57;;;;;;;;;;;;;;;16.29;82.82;101450.00;5053317;28;19933;-35
2022/09/17 09:12:26;;;;;;;;;;;;;;;16.49;83.48;101447.47;5064709;28;20388;-35
2022/09/17 09:14:57;;;;;;;;;;;;;;;16.75;82.52;101449.59;5053876;28;19925;-39
2022/09/17 09:17:29;;;;;;;;;;;;;;;16.71;78.27;101462.66;5056925;28;20038;-37
2022/09/17 09:19:56;;;;;;;;;;;;;;;16.48;74.68;101444.97;5072857;28;20382;-33
2022/09/17 09:22:34;;;;;;;;;;;;;;;16.61;76.75;101455.28;5064238;28;19975;-33
2022/09/17 09:25:05;;;;;;;;;;;;;;;17.05;74.43;101454.31;5071577;28;19933;-38
2022/09/17 09:27:37;;;;;;;;;;;;;;;17.22;72.18;101465.59;5064200;28;19928;-40
2022/09/17 09:30:05;;;;;;;;;;;;;;;17.42;71.09;101466.97;5071016;28;19924;-34
2022/09/17 09:32:42;;;;;;;;;;;;;;;17.89;71.91;101462.34;5064708;28;19932;-39
2022/09/17 09:35:16;;;;;;;;;;;;;;;18.52;65.18;101459.88;5070332;28;20403;-35
2022/09/17 09:37:44;;;;;;;;;;;;;;;18.92;60.52;101478.19;5064739;28;20310;-36
2022/09/17 09:40:19;;;;;;;;;;;;;;;19.18;59.75;101468.72;5068707;28;20326;-34
2022/09/17 09:42:48;;;;;;;;;;;;;;;19.28;59.59;101476.78;5066220;28;19928;-35
2022/09/17 09:45:17;;;;;;;;;;;;;;;19.16;58.33;101482.38;5067293;28;19928;-33
2022/09/17 09:47:53;;;;;;;;;;;;;;;19.23;60.32;101466.50;5067459;28;20341;-33
2022/09/17 09:50:29;;;;;;;;;;;;;;;19.44;57.93;101475.00;5068233;28;19932;-32
2022/09/17 09:53:22;;;;;;;;;;;;;;;19.33;55.26;101476.59;5072507;28;20300;-34
2022/09/17 09:56:02;;;;;;;;;;;;;;;19.28;57.48;101488.09;5073297;28;19925;-34
2022/09/17 09:58:33;;;;;;;;;;;;;;;19.46;54.36;101481.16;5064342;28;20337;-33
2022/09/17 10:01:01;;;;;;;;;;;;;;;19.60;52.84;101473.25;5068830;28;19932;-36
2022/09/17 10:03:32;;;;;;;;;;;;;;;19.57;54.06;101473.13;5065619;28;19929;-35
2022/09/17 10:06:00;;;;;;;;;;;;;;;19.67;53.21;101481.19;5067235;28;19941;-35
2022/09/17 10:08:29;;;;;;;;;;;;;;;19.50;54.19;101485.00;5067068;28;19929;-38
2022/09/17 10:10:58;;;;;;;;;;;;;;;19.23;55.54;101489.13;5065860;28;19925;-38
2022/09/17 10:13:27;;;;;;;;;;;;;;;19.18;56.23;101486.50;5067812;28;19982;-34
2022/09/17 10:15:54;;;;;;;;;;;;;;;19.46;54.70;101481.16;5063997;28;19958;-43
2022/09/17 10:18:23;;;;;;;;;;;;;;;19.79;52.35;101488.91;5070623;28;20023;-38
2022/09/17 10:20:56;;;;;;;;;;;;;;;20.11;52.99;101490.97;5061471;28;20346;-36
2022/09/17 10:23:25;;;;;;;;;;;;;;;20.45;54.35;101494.63;5069086;28;19983;-33
2022/09/17 10:25:54;;;;;;;;;;;;;;;20.50;55.74;101494.41;5063509;28;19929;-33
2022/09/17 10:28:38;;;;;;;;;;;;;;;20.12;52.26;101492.63;5052639;28;20386;-36
2022/09/17 10:31:09;;;;;;;;;;;;;;;19.70;52.28;101491.00;5061295;28;19933;-34
2022/09/17 10:33:39;;;;;;;;;;;;;;;19.70;53.54;101493.84;5069999;28;19932;-33
2022/09/17 10:36:13;;;;;;;;;;;;;;;19.81;51.60;101487.38;5062299;28;19929;-33
2022/09/17 10:38:42;;;;;;;;;;;;;;;19.92;53.17;101488.63;5053406;28;20371;-33
2022/09/17 10:41:14;;;;;;;;;;;;;;;19.98;51.88;101503.44;5062320;28;19978;-33
2022/09/17 10:43:42;;;;;;;;;;;;;;;19.81;54.32;101504.38;5053412;28;20396;-33
2022/09/17 10:46:12;;;;;;;;;;;;;;;19.37;56.20;101505.06;5060623;28;20362;-36
2022/09/17 10:48:41;;;;;;;;;;;;;;;18.97;58.00;101485.66;5069915;28;20241;-42
2022/09/17 10:51:11;;;;;;;;;;;;;;;18.63;58.38;101502.75;5064097;28;19929;-35
2022/09/17 10:53:57;;;;;;;;;;;;;;;18.41;56.60;101495.28;5051958;28;19978;-33
2022/09/17 10:56:29;;;;;;;;;;;;;;;18.38;56.55;101491.19;5059834;28;19932;-36
2022/09/17 10:59:00;;;;;;;;;;;;;;;18.30;58.40;101483.53;5071277;28;19929;-38
2022/09/17 11:01:35;;;;;;;;;;;;;;;18.38;59.74;101498.81;5064285;28;19978;-41
2022/09/17 11:04:12;;;;;;;;;;;;;;;18.57;58.82;101488.78;5051193;28;19925;-36
2022/09/17 11:06:50;;;;;;;;;;;;;;;18.78;55.59;101488.91;5060194;28;19970;-34
2022/09/17 11:09:29;;;;;;;;;;;;;;;19.17;55.94;101481.19;5070703;28;20382;-35
2022/09/17 11:12:06;;;;;;;;;;;;;;;19.55;54.65;101481.97;5064842;28;20267;-33
2022/09/17 11:14:43;;;;;;;;;;;;;;;19.63;54.17;101485.88;5070857;28;19986;-33
2022/09/17 11:17:13;;;;;;;;;;;;;;;19.88;55.90;101482.00;5058565;28;19929;-35
2022/09/17 11:19:45;;;;;;;;;;;;;;;19.84;50.03;101472.53;5071128;28;19928;-34
2022/09/17 11:22:22;;;;;;;;;;;;;;;19.92;50.17;101473.66;5065563;28;20382;-39
2022/09/17 11:25:09;;;;;;;;;;;;;;;19.91;48.97;101480.47;5070034;28;19936;-38
2022/09/17 11:27:48;;;;;;;;;;;;;;;19.61;49.95;101479.72;5045550;28;19936;-38
2022/09/17 11:30:17;;;;;;;;;;;;;;;19.25;51.96;101483.13;5047803;28;19936;-35
2022/09/17 11:33:02;;;;;;;;;;;;;;;19.24;55.57;101484.31;5064916;28;19940;-33
2022/09/17 11:35:32;;;;;;;;;;;;;;;19.37;54.19;101479.56;5050378;28;20011;-39
2022/09/17 11:38:05;;;;;;;;;;;;;;;19.56;53.83;101472.28;5061050;28;20336;-38
2022/09/17 11:40:37;;;;;;;;;;;;;;;19.55;52.36;101486.78;5050827;28;20011;-34
2022/09/17 11:43:11;;;;;;;;;;;;;;;19.26;51.68;101487.63;5067036;28;19932;-35
2022/09/17 11:45:41;;;;;;;;;;;;;;;18.76;51.74;101482.75;5068924;28;19928;-35
2022/09/17 11:48:13;;;;;;;;;;;;;;;18.39;55.81;101486.31;5061797;28;19951;-41
2022/09/17 11:50:44;;;;;;;;;;;;;;;18.36;57.25;101478.53;5068435;28;19925;-41
2022/09/17 11:53:17;;;;;;;;;;;;;;;18.62;56.12;101487.78;5055497;28;19929;-34
2022/09/17 11:55:47;;;;;;;;;;;;;;;18.73;54.42;101488.25;5070207;28;20459;-34
2022/09/17 11:58:19;;;;;;;;;;;;;;;18.66;54.06;101491.59;5062375;28;19925;-38
2022/09/17 12:00:49;;;;;;;;;;;;;;;18.62;55.70;101473.66;5050634;28;20382;-38
2022/09/17 12:03:20;;;;;;;;;;;;;;;18.62;56.27;101481.28;5056685;28;19978;-34
2022/09/17 12:05:51;;;;;;;;;;;;;;;18.64;55.34;101482.63;5069609;28;19935;-40
2022/09/17 12:08:22;;;;;;;;;;;;;;;18.60;56.62;101487.28;5064599;28;19929;-39
2022/09/17 12:10:52;;;;;;;;;;;;;;;18.69;59.11;101496.56;5051072;28;19955;-40
2022/09/17 12:13:26;;;;;;;;;;;;;;;18.68;58.06;101503.41;5057448;28;20371;-35
2022/09/17 12:16:01;;;;;;;;;;;;;;;18.57;60.84;101494.44;5074088;28;19928;-34
2022/09/17 12:18:33;;;;;;;;;;;;;;;18.54;64.21;101488.63;5059870;28;19975;-35
2022/09/17 12:21:03;;;;;;;;;;;;;;;18.57;62.61;101482.31;5071685;28;20382;-34
2022/09/17 12:23:37;;;;;;;;;;;;;;;18.63;62.46;101486.59;5068908;28;19960;-37
2022/09/17 12:26:09;;;;;;;;;;;;;;;18.72;63.43;101481.75;5073718;28;19978;-38
2022/09/17 12:28:41;;;;;;;;;;;;;;;18.86;59.64;101496.50;5058246;28;19929;-41
2022/09/17 12:31:12;;;;;;;;;;;;;;;18.73;56.56;101488.25;5072248;28;20388;-39
2022/09/17 12:33:43;;;;;;;;;;;;;;;18.62;57.69;101492.59;5064469;28;20397;-41
2022/09/17 12:36:18;;;;;;;;;;;;;;;18.54;59.63;101528.19;5071544;28;19924;-34
2022/09/17 12:39:00;;;;;;;;;;;;;;;18.14;57.98;101525.63;5069402;28;19929;-37
2022/09/17 12:41:36;;;;;;;;;;;;;;;17.60;58.49;101546.81;5041612;28;19929;-35
2022/09/17 12:44:18;;;;;;;;;;;;;;;17.07;59.50;101530.13;5063287;28;20413;-35
2022/09/17 12:47:00;;;;;;;;;;;;;;;16.70;60.88;101517.38;5055469;28;19924;-42
2022/09/17 12:49:37;;;;;;;;;;;;;;;16.42;61.16;101517.50;5055950;28;19935;-39
2022/09/17 12:52:07;;;;;;;;;;;;;;;16.45;64.58;101507.59;5054165;28;19971;-33